sensor_id;sensor_type;location;lat;lon;timestamp;P1;durP1;ratioP1;P2;durP2;ratioP2
6898;SDS011;3488;42.616;23.350;2023-02-26T00:00:29;12.40;;;5.07;;
6898;SDS011;3488;42.616;23.350;2023-02-26T00:02:57;8.18;;;4.38;;
6898;SDS011;3488;42.616;23.350;2023-02-26T00:05:25;7.05;;;4.00;;
6898;SDS011;3488;42.616;23.350;2023-02-26T00:07:52;12.98;;;4.30;;
6898;SDS011;3488;42.616;23.350;2023-02-26T00:10:19;14.27;;;4.82;;
6898;SDS011;3488;42.616;23.350;2023-02-26T00:12:46;10.82;;;5.75;;
6898;SDS011;3488;42.616;23.350;2023-02-26T00:15:14;10.43;;;5.20;;
6898;SDS011;3488;42.616;23.350;2023-02-26T00:17:43;12.90;;;4.90;;
6898;SDS011;3488;42.616;23.350;2023-02-26T00:20:15;8.90;;;4.25;;
6898;SDS011;3488;42.616;23.350;2023-02-26T00:22:45;9.18;;;4.00;;
6898;SDS011;3488;42.616;23.350;2023-02-26T00:25:12;9.60;;;4.38;;
6898;SDS011;3488;42.616;23.350;2023-02-26T00:27:39;9.45;;;4.07;;
6898;SDS011;3488;42.616;23.350;2023-02-26T00:30:08;7.28;;;3.92;;
6898;SDS011;3488;42.616;23.350;2023-02-26T00:32:36;13.77;;;4.40;;
6898;SDS011;3488;42.616;23.350;2023-02-26T00:35:05;6.93;;;3.58;;
6898;SDS011;3488;42.616;23.350;2023-02-26T00:37:42;10.15;;;3.72;;
6898;SDS011;3488;42.616;23.350;2023-02-26T00:40:27;7.75;;;4.25;;
6898;SDS011;3488;42.616;23.350;2023-02-26T00:43:01;15.68;;;4.07;;
6898;SDS011;3488;42.616;23.350;2023-02-26T00:45:29;6.88;;;3.45;;
6898;SDS011;3488;42.616;23.350;2023-02-26T00:48:05;9.25;;;4.25;;
6898;SDS011;3488;42.616;23.350;2023-02-26T00:50:45;6.82;;;3.70;;
6898;SDS011;3488;42.616;23.350;2023-02-26T00:53:19;10.02;;;4.68;;
6898;SDS011;3488;42.616;23.350;2023-02-26T00:55:52;9.98;;;4.28;;
6898;SDS011;3488;42.616;23.350;2023-02-26T00:58:19;7.63;;;3.58;;
6898;SDS011;3488;42.616;23.350;2023-02-26T01:00:46;11.60;;;4.35;;
6898;SDS011;3488;42.616;23.350;2023-02-26T01:03:14;9.10;;;4.07;;
6898;SDS011;3488;42.616;23.350;2023-02-26T01:05:41;12.52;;;5.32;;
6898;SDS011;3488;42.616;23.350;2023-02-26T01:08:11;5.13;;;3.70;;
6898;SDS011;3488;42.616;23.350;2023-02-26T01:10:46;11.50;;;3.88;;
6898;SDS011;3488;42.616;23.350;2023-02-26T01:13:13;9.60;;;4.18;;
6898;SDS011;3488;42.616;23.350;2023-02-26T01:15:42;14.07;;;4.32;;
6898;SDS011;3488;42.616;23.350;2023-02-26T01:18:17;12.75;;;3.67;;
6898;SDS011;3488;42.616;23.350;2023-02-26T01:20:48;10.23;;;4.20;;
6898;SDS011;3488;42.616;23.350;2023-02-26T01:23:20;11.50;;;4.38;;
6898;SDS011;3488;42.616;23.350;2023-02-26T01:25:52;10.95;;;4.43;;
6898;SDS011;3488;42.616;23.350;2023-02-26T01:28:23;11.10;;;4.00;;
6898;SDS011;3488;42.616;23.350;2023-02-26T01:30:51;8.10;;;3.75;;
6898;SDS011;3488;42.616;23.350;2023-02-26T01:33:23;12.23;;;4.18;;
6898;SDS011;3488;42.616;23.350;2023-02-26T01:35:54;10.82;;;3.42;;
6898;SDS011;3488;42.616;23.350;2023-02-26T01:38:28;10.32;;;3.33;;
6898;SDS011;3488;42.616;23.350;2023-02-26T01:41:05;11.63;;;3.72;;
6898;SDS011;3488;42.616;23.350;2023-02-26T01:43:44;9.20;;;4.18;;
6898;SDS011;3488;42.616;23.350;2023-02-26T01:46:17;8.13;;;3.78;;
6898;SDS011;3488;42.616;23.350;2023-02-26T01:48:48;9.15;;;3.22;;
6898;SDS011;3488;42.616;23.350;2023-02-26T01:51:18;7.38;;;3.47;;
6898;SDS011;3488;42.616;23.350;2023-02-26T01:54:00;12.55;;;4.13;;
6898;SDS011;3488;42.616;23.350;2023-02-26T01:56:29;6.60;;;3.80;;
6898;SDS011;3488;42.616;23.350;2023-02-26T01:58:56;11.73;;;3.90;;
6898;SDS011;3488;42.616;23.350;2023-02-26T02:01:24;6.38;;;2.90;;
6898;SDS011;3488;42.616;23.350;2023-02-26T02:03:52;6.85;;;3.40;;
6898;SDS011;3488;42.616;23.350;2023-02-26T02:06:20;8.32;;;3.70;;
6898;SDS011;3488;42.616;23.350;2023-02-26T02:08:50;6.18;;;2.80;;
6898;SDS011;3488;42.616;23.350;2023-02-26T02:11:17;6.78;;;3.35;;
6898;SDS011;3488;42.616;23.350;2023-02-26T02:13:51;5.72;;;3.55;;
6898;SDS011;3488;42.616;23.350;2023-02-26T02:16:29;6.00;;;3.15;;
6898;SDS011;3488;42.616;23.350;2023-02-26T02:19:05;7.82;;;3.40;;
6898;SDS011;3488;42.616;23.350;2023-02-26T02:22:00;8.23;;;4.22;;
6898;SDS011;3488;42.616;23.350;2023-02-26T02:24:43;13.73;;;3.95;;
6898;SDS011;3488;42.616;23.350;2023-02-26T02:27:24;7.25;;;3.13;;
6898;SDS011;3488;42.616;23.350;2023-02-26T02:32:53;10.40;;;3.20;;
6898;SDS011;3488;42.616;23.350;2023-02-26T02:35:24;10.43;;;3.60;;
6898;SDS011;3488;42.616;23.350;2023-02-26T02:37:56;9.77;;;2.83;;
6898;SDS011;3488;42.616;23.350;2023-02-26T02:40:28;8.07;;;2.95;;
6898;SDS011;3488;42.616;23.350;2023-02-26T02:42:58;10.35;;;3.30;;
6898;SDS011;3488;42.616;23.350;2023-02-26T02:45:29;10.23;;;3.40;;
6898;SDS011;3488;42.616;23.350;2023-02-26T02:48:02;7.90;;;3.92;;
6898;SDS011;3488;42.616;23.350;2023-02-26T02:50:33;8.07;;;3.28;;
6898;SDS011;3488;42.616;23.350;2023-02-26T02:53:06;10.88;;;3.38;;
6898;SDS011;3488;42.616;23.350;2023-02-26T02:55:38;5.50;;;2.83;;
6898;SDS011;3488;42.616;23.350;2023-02-26T02:58:10;6.78;;;3.78;;
6898;SDS011;3488;42.616;23.350;2023-02-26T03:00:41;11.90;;;3.85;;
6898;SDS011;3488;42.616;23.350;2023-02-26T03:03:12;23.80;;;4.13;;
6898;SDS011;3488;42.616;23.350;2023-02-26T03:05:45;3.65;;;3.17;;
6898;SDS011;3488;42.616;23.350;2023-02-26T03:08:13;10.48;;;2.65;;
6898;SDS011;3488;42.616;23.350;2023-02-26T03:10:42;7.28;;;3.33;;
6898;SDS011;3488;42.616;23.350;2023-02-26T03:13:13;10.65;;;3.15;;
6898;SDS011;3488;42.616;23.350;2023-02-26T03:15:45;6.20;;;2.75;;
6898;SDS011;3488;42.616;23.350;2023-02-26T03:18:22;10.07;;;2.75;;
6898;SDS011;3488;42.616;23.350;2023-02-26T03:21:01;11.38;;;3.85;;
6898;SDS011;3488;42.616;23.350;2023-02-26T03:23:33;6.63;;;3.17;;
6898;SDS011;3488;42.616;23.350;2023-02-26T03:26:03;6.13;;;3.28;;
6898;SDS011;3488;42.616;23.350;2023-02-26T03:28:37;7.07;;;2.85;;
6898;SDS011;3488;42.616;23.350;2023-02-26T03:31:07;4.13;;;3.00;;
6898;SDS011;3488;42.616;23.350;2023-02-26T03:33:43;11.45;;;3.67;;
6898;SDS011;3488;42.616;23.350;2023-02-26T03:36:19;5.78;;;3.28;;
6898;SDS011;3488;42.616;23.350;2023-02-26T03:38:52;9.40;;;3.25;;
6898;SDS011;3488;42.616;23.350;2023-02-26T03:41:25;12.43;;;3.78;;
6898;SDS011;3488;42.616;23.350;2023-02-26T03:43:57;5.88;;;3.08;;
6898;SDS011;3488;42.616;23.350;2023-02-26T03:46:29;5.38;;;3.13;;
6898;SDS011;3488;42.616;23.350;2023-02-26T03:49:03;9.30;;;3.35;;
6898;SDS011;3488;42.616;23.350;2023-02-26T03:51:34;7.78;;;2.80;;
6898;SDS011;3488;42.616;23.350;2023-02-26T03:54:04;8.60;;;2.95;;
6898;SDS011;3488;42.616;23.350;2023-02-26T03:56:36;7.82;;;3.25;;
6898;SDS011;3488;42.616;23.350;2023-02-26T03:59:06;11.90;;;3.65;;
6898;SDS011;3488;42.616;23.350;2023-02-26T04:01:34;10.90;;;3.67;;
6898;SDS011;3488;42.616;23.350;2023-02-26T04:04:09;7.28;;;2.67;;
6898;SDS011;3488;42.616;23.350;2023-02-26T04:06:40;10.82;;;3.33;;
6898;SDS011;3488;42.616;23.350;2023-02-26T04:09:08;13.70;;;4.25;;
6898;SDS011;3488;42.616;23.350;2023-02-26T04:11:36;6.13;;;2.67;;
6898;SDS011;3488;42.616;23.350;2023-02-26T04:14:04;9.93;;;3.50;;
6898;SDS011;3488;42.616;23.350;2023-02-26T04:16:31;7.97;;;3.58;;
6898;SDS011;3488;42.616;23.350;2023-02-26T04:18:58;13.13;;;3.72;;
6898;SDS011;3488;42.616;23.350;2023-02-26T04:21:26;6.95;;;3.15;;
6898;SDS011;3488;42.616;23.350;2023-02-26T04:23:53;11.52;;;3.28;;
6898;SDS011;3488;42.616;23.350;2023-02-26T04:26:20;6.10;;;3.33;;
6898;SDS011;3488;42.616;23.350;2023-02-26T04:28:47;14.88;;;3.58;;
6898;SDS011;3488;42.616;23.350;2023-02-26T04:31:14;12.32;;;3.13;;
6898;SDS011;3488;42.616;23.350;2023-02-26T04:33:41;8.73;;;3.13;;
6898;SDS011;3488;42.616;23.350;2023-02-26T04:36:08;6.22;;;2.70;;
6898;SDS011;3488;42.616;23.350;2023-02-26T04:38:37;11.60;;;2.95;;
6898;SDS011;3488;42.616;23.350;2023-02-26T04:41:04;5.70;;;3.03;;
6898;SDS011;3488;42.616;23.350;2023-02-26T04:43:31;11.07;;;3.22;;
6898;SDS011;3488;42.616;23.350;2023-02-26T04:45:59;5.88;;;2.63;;
6898;SDS011;3488;42.616;23.350;2023-02-26T04:48:26;4.85;;;2.92;;
6898;SDS011;3488;42.616;23.350;2023-02-26T04:50:53;11.90;;;3.55;;
6898;SDS011;3488;42.616;23.350;2023-02-26T04:53:20;11.88;;;3.47;;
6898;SDS011;3488;42.616;23.350;2023-02-26T04:55:48;6.88;;;2.80;;
6898;SDS011;3488;42.616;23.350;2023-02-26T04:58:15;8.75;;;3.13;;
6898;SDS011;3488;42.616;23.350;2023-02-26T05:00:46;6.90;;;3.33;;
6898;SDS011;3488;42.616;23.350;2023-02-26T05:03:14;5.53;;;2.47;;
6898;SDS011;3488;42.616;23.350;2023-02-26T05:05:41;10.50;;;3.45;;
6898;SDS011;3488;42.616;23.350;2023-02-26T05:08:08;13.43;;;3.67;;
6898;SDS011;3488;42.616;23.350;2023-02-26T05:10:36;12.35;;;3.33;;
6898;SDS011;3488;42.616;23.350;2023-02-26T05:13:04;14.13;;;3.40;;
6898;SDS011;3488;42.616;23.350;2023-02-26T05:15:31;8.25;;;3.70;;
6898;SDS011;3488;42.616;23.350;2023-02-26T05:17:59;7.78;;;2.88;;
6898;SDS011;3488;42.616;23.350;2023-02-26T05:20:26;9.02;;;2.58;;
6898;SDS011;3488;42.616;23.350;2023-02-26T05:22:53;8.38;;;3.45;;
6898;SDS011;3488;42.616;23.350;2023-02-26T05:25:20;5.82;;;2.95;;
6898;SDS011;3488;42.616;23.350;2023-02-26T05:27:47;9.40;;;3.17;;
6898;SDS011;3488;42.616;23.350;2023-02-26T05:30:16;11.40;;;3.35;;
6898;SDS011;3488;42.616;23.350;2023-02-26T05:32:43;11.10;;;3.20;;
6898;SDS011;3488;42.616;23.350;2023-02-26T05:35:10;14.20;;;4.47;;
6898;SDS011;3488;42.616;23.350;2023-02-26T05:37:38;14.75;;;3.83;;
6898;SDS011;3488;42.616;23.350;2023-02-26T05:40:06;17.67;;;3.47;;
6898;SDS011;3488;42.616;23.350;2023-02-26T05:42:35;6.40;;;2.78;;
6898;SDS011;3488;42.616;23.350;2023-02-26T05:45:03;14.10;;;3.10;;
6898;SDS011;3488;42.616;23.350;2023-02-26T05:47:33;10.98;;;3.88;;
6898;SDS011;3488;42.616;23.350;2023-02-26T05:50:00;15.95;;;3.05;;
6898;SDS011;3488;42.616;23.350;2023-02-26T05:52:30;11.48;;;3.55;;
6898;SDS011;3488;42.616;23.350;2023-02-26T05:54:57;6.13;;;2.97;;
6898;SDS011;3488;42.616;23.350;2023-02-26T05:57:25;9.40;;;2.65;;
6898;SDS011;3488;42.616;23.350;2023-02-26T05:59:52;12.38;;;2.97;;
6898;SDS011;3488;42.616;23.350;2023-02-26T06:02:19;10.13;;;2.80;;
6898;SDS011;3488;42.616;23.350;2023-02-26T06:04:47;9.80;;;3.00;;
6898;SDS011;3488;42.616;23.350;2023-02-26T06:07:14;10.38;;;3.38;;
6898;SDS011;3488;42.616;23.350;2023-02-26T06:09:41;11.65;;;3.38;;
6898;SDS011;3488;42.616;23.350;2023-02-26T06:12:08;17.20;;;2.75;;
6898;SDS011;3488;42.616;23.350;2023-02-26T06:14:35;7.07;;;3.25;;
6898;SDS011;3488;42.616;23.350;2023-02-26T06:17:03;12.00;;;3.25;;
6898;SDS011;3488;42.616;23.350;2023-02-26T06:19:30;13.50;;;3.72;;
6898;SDS011;3488;42.616;23.350;2023-02-26T06:21:59;12.10;;;4.20;;
6898;SDS011;3488;42.616;23.350;2023-02-26T06:24:26;12.32;;;2.97;;
6898;SDS011;3488;42.616;23.350;2023-02-26T06:26:53;13.05;;;3.10;;
6898;SDS011;3488;42.616;23.350;2023-02-26T06:29:20;13.38;;;3.15;;
6898;SDS011;3488;42.616;23.350;2023-02-26T06:31:47;19.90;;;3.97;;
6898;SDS011;3488;42.616;23.350;2023-02-26T06:34:14;11.88;;;3.55;;
6898;SDS011;3488;42.616;23.350;2023-02-26T06:36:41;14.25;;;3.60;;
6898;SDS011;3488;42.616;23.350;2023-02-26T06:39:09;10.32;;;2.88;;
6898;SDS011;3488;42.616;23.350;2023-02-26T06:41:37;14.43;;;2.90;;
6898;SDS011;3488;42.616;23.350;2023-02-26T06:44:04;8.95;;;2.90;;
6898;SDS011;3488;42.616;23.350;2023-02-26T06:46:32;11.20;;;3.20;;
6898;SDS011;3488;42.616;23.350;2023-02-26T06:48:59;10.57;;;3.55;;
6898;SDS011;3488;42.616;23.350;2023-02-26T06:51:26;7.47;;;2.90;;
6898;SDS011;3488;42.616;23.350;2023-02-26T06:53:53;14.95;;;2.53;;
6898;SDS011;3488;42.616;23.350;2023-02-26T06:56:22;8.50;;;2.70;;
6898;SDS011;3488;42.616;23.350;2023-02-26T06:58:49;10.85;;;2.67;;
6898;SDS011;3488;42.616;23.350;2023-02-26T07:01:16;12.20;;;4.53;;
6898;SDS011;3488;42.616;23.350;2023-02-26T07:03:43;13.85;;;3.17;;
6898;SDS011;3488;42.616;23.350;2023-02-26T07:06:10;15.55;;;3.35;;
6898;SDS011;3488;42.616;23.350;2023-02-26T07:08:38;10.98;;;3.38;;
6898;SDS011;3488;42.616;23.350;2023-02-26T07:11:05;10.73;;;2.80;;
6898;SDS011;3488;42.616;23.350;2023-02-26T07:13:34;14.23;;;2.97;;
6898;SDS011;3488;42.616;23.350;2023-02-26T07:16:02;12.60;;;2.70;;
6898;SDS011;3488;42.616;23.350;2023-02-26T07:18:31;15.93;;;3.58;;
6898;SDS011;3488;42.616;23.350;2023-02-26T07:20:58;8.75;;;2.80;;
6898;SDS011;3488;42.616;23.350;2023-02-26T07:23:25;10.02;;;3.90;;
6898;SDS011;3488;42.616;23.350;2023-02-26T07:25:53;19.33;;;3.50;;
6898;SDS011;3488;42.616;23.350;2023-02-26T07:28:20;11.48;;;3.30;;
6898;SDS011;3488;42.616;23.350;2023-02-26T07:30:49;9.45;;;3.58;;
6898;SDS011;3488;42.616;23.350;2023-02-26T07:33:16;11.57;;;4.18;;
6898;SDS011;3488;42.616;23.350;2023-02-26T07:35:43;11.77;;;3.05;;
6898;SDS011;3488;42.616;23.350;2023-02-26T07:38:09;12.95;;;3.55;;
6898;SDS011;3488;42.616;23.350;2023-02-26T07:40:36;10.93;;;3.13;;
6898;SDS011;3488;42.616;23.350;2023-02-26T07:43:03;14.15;;;3.05;;
6898;SDS011;3488;42.616;23.350;2023-02-26T07:45:31;15.05;;;3.92;;
6898;SDS011;3488;42.616;23.350;2023-02-26T07:47:59;10.40;;;3.15;;
6898;SDS011;3488;42.616;23.350;2023-02-26T07:50:26;11.52;;;3.28;;
6898;SDS011;3488;42.616;23.350;2023-02-26T07:52:54;8.68;;;2.63;;
6898;SDS011;3488;42.616;23.350;2023-02-26T07:55:21;7.90;;;3.08;;
6898;SDS011;3488;42.616;23.350;2023-02-26T07:57:48;9.65;;;3.47;;
6898;SDS011;3488;42.616;23.350;2023-02-26T08:00:16;15.13;;;3.85;;
6898;SDS011;3488;42.616;23.350;2023-02-26T08:02:44;11.35;;;3.22;;
6898;SDS011;3488;42.616;23.350;2023-02-26T08:05:13;10.65;;;3.63;;
6898;SDS011;3488;42.616;23.350;2023-02-26T08:07:40;9.27;;;3.42;;
6898;SDS011;3488;42.616;23.350;2023-02-26T08:10:08;7.15;;;2.90;;
6898;SDS011;3488;42.616;23.350;2023-02-26T08:12:36;9.25;;;2.83;;
6898;SDS011;3488;42.616;23.350;2023-02-26T08:15:03;13.52;;;2.80;;
6898;SDS011;3488;42.616;23.350;2023-02-26T08:17:30;8.15;;;2.85;;
6898;SDS011;3488;42.616;23.350;2023-02-26T08:19:58;14.05;;;4.28;;
6898;SDS011;3488;42.616;23.350;2023-02-26T08:22:26;11.25;;;3.13;;
6898;SDS011;3488;42.616;23.350;2023-02-26T08:24:53;13.38;;;3.70;;
6898;SDS011;3488;42.616;23.350;2023-02-26T08:27:20;10.05;;;3.45;;
6898;SDS011;3488;42.616;23.350;2023-02-26T08:29:47;14.65;;;4.00;;
6898;SDS011;3488;42.616;23.350;2023-02-26T08:32:15;7.55;;;3.40;;
6898;SDS011;3488;42.616;23.350;2023-02-26T08:34:43;10.32;;;2.85;;
6898;SDS011;3488;42.616;23.350;2023-02-26T08:37:10;18.08;;;3.85;;
6898;SDS011;3488;42.616;23.350;2023-02-26T08:39:39;9.85;;;3.45;;
6898;SDS011;3488;42.616;23.350;2023-02-26T08:42:07;13.23;;;3.55;;
6898;SDS011;3488;42.616;23.350;2023-02-26T08:44:35;6.57;;;2.65;;
6898;SDS011;3488;42.616;23.350;2023-02-26T08:47:03;11.88;;;3.25;;
6898;SDS011;3488;42.616;23.350;2023-02-26T08:49:30;11.50;;;3.10;;
6898;SDS011;3488;42.616;23.350;2023-02-26T08:51:57;7.97;;;3.40;;
6898;SDS011;3488;42.616;23.350;2023-02-26T08:54:24;10.60;;;3.13;;
6898;SDS011;3488;42.616;23.350;2023-02-26T08:56:52;12.07;;;3.80;;
6898;SDS011;3488;42.616;23.350;2023-02-26T08:59:22;9.07;;;3.20;;
6898;SDS011;3488;42.616;23.350;2023-02-26T09:01:49;13.50;;;3.25;;
6898;SDS011;3488;42.616;23.350;2023-02-26T09:04:17;11.75;;;3.28;;
6898;SDS011;3488;42.616;23.350;2023-02-26T09:06:44;15.32;;;3.10;;
6898;SDS011;3488;42.616;23.350;2023-02-26T09:09:11;8.93;;;3.03;;
6898;SDS011;3488;42.616;23.350;2023-02-26T09:11:38;17.52;;;3.17;;
6898;SDS011;3488;42.616;23.350;2023-02-26T09:14:06;14.23;;;3.55;;
6898;SDS011;3488;42.616;23.350;2023-02-26T09:16:34;18.80;;;3.60;;
6898;SDS011;3488;42.616;23.350;2023-02-26T09:19:01;5.40;;;3.17;;
6898;SDS011;3488;42.616;23.350;2023-02-26T09:21:29;15.48;;;3.25;;
6898;SDS011;3488;42.616;23.350;2023-02-26T09:23:56;12.85;;;3.50;;
6898;SDS011;3488;42.616;23.350;2023-02-26T09:26:23;18.23;;;3.72;;
6898;SDS011;3488;42.616;23.350;2023-02-26T09:28:50;7.45;;;3.10;;
6898;SDS011;3488;42.616;23.350;2023-02-26T09:31:18;9.63;;;3.13;;
6898;SDS011;3488;42.616;23.350;2023-02-26T09:33:45;11.23;;;3.25;;
6898;SDS011;3488;42.616;23.350;2023-02-26T09:36:12;14.73;;;3.22;;
6898;SDS011;3488;42.616;23.350;2023-02-26T09:38:39;16.00;;;3.40;;
6898;SDS011;3488;42.616;23.350;2023-02-26T09:41:08;13.38;;;3.08;;
6898;SDS011;3488;42.616;23.350;2023-02-26T09:43:47;18.52;;;3.33;;
6898;SDS011;3488;42.616;23.350;2023-02-26T09:46:29;8.77;;;2.90;;
6898;SDS011;3488;42.616;23.350;2023-02-26T09:49:04;13.48;;;3.38;;
6898;SDS011;3488;42.616;23.350;2023-02-26T09:51:41;11.10;;;3.33;;
6898;SDS011;3488;42.616;23.350;2023-02-26T09:54:12;14.95;;;2.78;;
6898;SDS011;3488;42.616;23.350;2023-02-26T09:56:42;4.55;;;2.42;;
6898;SDS011;3488;42.616;23.350;2023-02-26T09:59:10;16.25;;;3.42;;
6898;SDS011;3488;42.616;23.350;2023-02-26T10:01:39;6.00;;;3.03;;
6898;SDS011;3488;42.616;23.350;2023-02-26T10:04:15;5.68;;;2.08;;
6898;SDS011;3488;42.616;23.350;2023-02-26T10:06:53;11.15;;;3.35;;
6898;SDS011;3488;42.616;23.350;2023-02-26T10:09:32;12.65;;;3.45;;
6898;SDS011;3488;42.616;23.350;2023-02-26T10:12:11;13.05;;;3.38;;
6898;SDS011;3488;42.616;23.350;2023-02-26T10:14:42;11.95;;;3.30;;
6898;SDS011;3488;42.616;23.350;2023-02-26T10:17:17;7.47;;;2.63;;
6898;SDS011;3488;42.616;23.350;2023-02-26T10:19:52;12.88;;;3.65;;
6898;SDS011;3488;42.616;23.350;2023-02-26T10:22:25;11.23;;;3.33;;
6898;SDS011;3488;42.616;23.350;2023-02-26T10:24:57;8.60;;;3.65;;
6898;SDS011;3488;42.616;23.350;2023-02-26T10:27:35;16.58;;;3.05;;
6898;SDS011;3488;42.616;23.350;2023-02-26T10:30:06;7.40;;;3.35;;
6898;SDS011;3488;42.616;23.350;2023-02-26T10:32:45;12.02;;;3.08;;
6898;SDS011;3488;42.616;23.350;2023-02-26T10:35:20;7.72;;;2.50;;
6898;SDS011;3488;42.616;23.350;2023-02-26T10:37:53;9.38;;;2.90;;
6898;SDS011;3488;42.616;23.350;2023-02-26T10:40:24;11.43;;;2.88;;
6898;SDS011;3488;42.616;23.350;2023-02-26T10:42:57;4.85;;;2.65;;
6898;SDS011;3488;42.616;23.350;2023-02-26T10:45:38;12.77;;;2.92;;
6898;SDS011;3488;42.616;23.350;2023-02-26T10:48:18;13.32;;;3.03;;
6898;SDS011;3488;42.616;23.350;2023-02-26T10:50:53;7.35;;;2.20;;
6898;SDS011;3488;42.616;23.350;2023-02-26T10:53:23;7.00;;;2.85;;
6898;SDS011;3488;42.616;23.350;2023-02-26T10:55:54;10.40;;;3.75;;
6898;SDS011;3488;42.616;23.350;2023-02-26T10:58:27;12.27;;;3.25;;
6898;SDS011;3488;42.616;23.350;2023-02-26T11:00:54;6.05;;;3.03;;
6898;SDS011;3488;42.616;23.350;2023-02-26T11:03:25;12.25;;;3.30;;
6898;SDS011;3488;42.616;23.350;2023-02-26T11:05:57;8.93;;;2.90;;
6898;SDS011;3488;42.616;23.350;2023-02-26T11:08:25;9.43;;;2.67;;
6898;SDS011;3488;42.616;23.350;2023-02-26T11:10:55;12.77;;;2.75;;
6898;SDS011;3488;42.616;23.350;2023-02-26T11:13:23;13.75;;;2.88;;
6898;SDS011;3488;42.616;23.350;2023-02-26T11:15:53;7.32;;;2.50;;
6898;SDS011;3488;42.616;23.350;2023-02-26T11:18:24;10.90;;;3.10;;
6898;SDS011;3488;42.616;23.350;2023-02-26T11:20:54;8.18;;;3.00;;
6898;SDS011;3488;42.616;23.350;2023-02-26T11:23:25;13.90;;;3.15;;
6898;SDS011;3488;42.616;23.350;2023-02-26T11:25:58;11.48;;;2.80;;
6898;SDS011;3488;42.616;23.350;2023-02-26T11:28:30;6.63;;;2.53;;
6898;SDS011;3488;42.616;23.350;2023-02-26T11:31:00;13.57;;;2.70;;
6898;SDS011;3488;42.616;23.350;2023-02-26T11:33:35;10.77;;;3.80;;
6898;SDS011;3488;42.616;23.350;2023-02-26T11:36:06;10.95;;;3.42;;
6898;SDS011;3488;42.616;23.350;2023-02-26T11:38:37;8.80;;;3.42;;
6898;SDS011;3488;42.616;23.350;2023-02-26T11:41:05;14.57;;;3.78;;
6898;SDS011;3488;42.616;23.350;2023-02-26T11:43:34;14.80;;;3.60;;
6898;SDS011;3488;42.616;23.350;2023-02-26T11:46:05;7.57;;;2.63;;
6898;SDS011;3488;42.616;23.350;2023-02-26T11:48:37;10.98;;;3.45;;
6898;SDS011;3488;42.616;23.350;2023-02-26T11:51:07;14.38;;;4.60;;
6898;SDS011;3488;42.616;23.350;2023-02-26T11:53:41;9.45;;;3.60;;
6898;SDS011;3488;42.616;23.350;2023-02-26T11:56:14;14.00;;;3.75;;
6898;SDS011;3488;42.616;23.350;2023-02-26T11:58:50;9.30;;;3.67;;
6898;SDS011;3488;42.616;23.350;2023-02-26T12:01:25;13.07;;;3.88;;
6898;SDS011;3488;42.616;23.350;2023-02-26T12:03:56;13.85;;;4.80;;
6898;SDS011;3488;42.616;23.350;2023-02-26T12:06:25;14.13;;;4.45;;
6898;SDS011;3488;42.616;23.350;2023-02-26T12:08:52;8.25;;;4.05;;
6898;SDS011;3488;42.616;23.350;2023-02-26T12:11:24;10.55;;;4.25;;
6898;SDS011;3488;42.616;23.350;2023-02-26T12:17:29;13.27;;;4.72;;
6898;SDS011;3488;42.616;23.350;2023-02-26T12:20:10;10.25;;;3.60;;
6898;SDS011;3488;42.616;23.350;2023-02-26T12:22:47;13.40;;;4.07;;
6898;SDS011;3488;42.616;23.350;2023-02-26T12:25:26;22.88;;;7.65;;
6898;SDS011;3488;42.616;23.350;2023-02-26T12:28:09;16.02;;;4.15;;
6898;SDS011;3488;42.616;23.350;2023-02-26T12:31:16;14.48;;;4.70;;
6898;SDS011;3488;42.616;23.350;2023-02-26T12:33:54;12.10;;;5.25;;
6898;SDS011;3488;42.616;23.350;2023-02-26T12:36:41;13.85;;;4.68;;
6898;SDS011;3488;42.616;23.350;2023-02-26T12:39:23;16.52;;;5.30;;
6898;SDS011;3488;42.616;23.350;2023-02-26T12:42:06;15.75;;;4.82;;
6898;SDS011;3488;42.616;23.350;2023-02-26T12:44:49;16.13;;;5.75;;
6898;SDS011;3488;42.616;23.350;2023-02-26T12:47:32;15.05;;;5.65;;
6898;SDS011;3488;42.616;23.350;2023-02-26T12:53:11;16.63;;;4.28;;
6898;SDS011;3488;42.616;23.350;2023-02-26T12:56:02;14.05;;;4.07;;
6898;SDS011;3488;42.616;23.350;2023-02-26T12:58:45;16.65;;;5.30;;
6898;SDS011;3488;42.616;23.350;2023-02-26T13:01:45;14.43;;;4.32;;
6898;SDS011;3488;42.616;23.350;2023-02-26T13:07:33;9.00;;;3.78;;
6898;SDS011;3488;42.616;23.350;2023-02-26T13:10:20;10.63;;;3.20;;
6898;SDS011;3488;42.616;23.350;2023-02-26T13:12:55;14.35;;;3.90;;
6898;SDS011;3488;42.616;23.350;2023-02-26T13:15:37;10.93;;;4.22;;
6898;SDS011;3488;42.616;23.350;2023-02-26T13:18:17;15.75;;;4.90;;
6898;SDS011;3488;42.616;23.350;2023-02-26T13:20:54;16.52;;;4.05;;
6898;SDS011;3488;42.616;23.350;2023-02-26T13:23:26;12.77;;;4.65;;
6898;SDS011;3488;42.616;23.350;2023-02-26T13:26:01;18.27;;;4.80;;
6898;SDS011;3488;42.616;23.350;2023-02-26T13:28:35;12.40;;;3.70;;
6898;SDS011;3488;42.616;23.350;2023-02-26T13:31:07;10.30;;;3.65;;
6898;SDS011;3488;42.616;23.350;2023-02-26T13:33:41;10.38;;;4.45;;
6898;SDS011;3488;42.616;23.350;2023-02-26T13:36:10;9.27;;;3.95;;
6898;SDS011;3488;42.616;23.350;2023-02-26T13:38:41;12.30;;;4.07;;
6898;SDS011;3488;42.616;23.350;2023-02-26T13:41:18;17.17;;;4.13;;
6898;SDS011;3488;42.616;23.350;2023-02-26T13:43:58;14.48;;;4.57;;
6898;SDS011;3488;42.616;23.350;2023-02-26T13:46:41;14.27;;;4.43;;
6898;SDS011;3488;42.616;23.350;2023-02-26T13:49:20;17.13;;;4.70;;
6898;SDS011;3488;42.616;23.350;2023-02-26T13:51:52;19.27;;;4.15;;
6898;SDS011;3488;42.616;23.350;2023-02-26T13:57:24;17.88;;;4.05;;
6898;SDS011;3488;42.616;23.350;2023-02-26T14:00:02;16.25;;;4.93;;
6898;SDS011;3488;42.616;23.350;2023-02-26T14:02:44;14.70;;;4.20;;
6898;SDS011;3488;42.616;23.350;2023-02-26T14:05:31;15.38;;;5.53;;
6898;SDS011;3488;42.616;23.350;2023-02-26T14:11:23;14.15;;;4.60;;
6898;SDS011;3488;42.616;23.350;2023-02-26T14:14:09;20.50;;;5.53;;
6898;SDS011;3488;42.616;23.350;2023-02-26T14:16:38;21.92;;;5.97;;
6898;SDS011;3488;42.616;23.350;2023-02-26T14:19:18;15.30;;;5.60;;
6898;SDS011;3488;42.616;23.350;2023-02-26T14:21:48;16.33;;;4.95;;
6898;SDS011;3488;42.616;23.350;2023-02-26T14:24:20;27.17;;;5.30;;
6898;SDS011;3488;42.616;23.350;2023-02-26T14:27:05;21.35;;;4.65;;
6898;SDS011;3488;42.616;23.350;2023-02-26T14:29:57;22.85;;;5.65;;
6898;SDS011;3488;42.616;23.350;2023-02-26T14:32:29;15.70;;;4.07;;
6898;SDS011;3488;42.616;23.350;2023-02-26T14:34:58;15.73;;;6.15;;
6898;SDS011;3488;42.616;23.350;2023-02-26T14:37:30;19.48;;;5.63;;
6898;SDS011;3488;42.616;23.350;2023-02-26T14:40:03;27.08;;;5.57;;
6898;SDS011;3488;42.616;23.350;2023-02-26T14:42:36;21.08;;;5.93;;
6898;SDS011;3488;42.616;23.350;2023-02-26T14:45:16;15.73;;;4.65;;
6898;SDS011;3488;42.616;23.350;2023-02-26T14:47:51;28.95;;;6.50;;
6898;SDS011;3488;42.616;23.350;2023-02-26T14:50:21;24.05;;;6.22;;
6898;SDS011;3488;42.616;23.350;2023-02-26T14:52:56;22.98;;;5.15;;
6898;SDS011;3488;42.616;23.350;2023-02-26T14:55:57;22.67;;;5.97;;
6898;SDS011;3488;42.616;23.350;2023-02-26T14:58:41;44.08;;;7.18;;
6898;SDS011;3488;42.616;23.350;2023-02-26T15:01:21;25.55;;;5.20;;
6898;SDS011;3488;42.616;23.350;2023-02-26T15:04:08;24.30;;;4.93;;
6898;SDS011;3488;42.616;23.350;2023-02-26T15:06:55;22.70;;;6.07;;
6898;SDS011;3488;42.616;23.350;2023-02-26T15:09:36;21.08;;;5.47;;
6898;SDS011;3488;42.616;23.350;2023-02-26T15:12:18;30.75;;;6.78;;
6898;SDS011;3488;42.616;23.350;2023-02-26T15:15:00;25.08;;;6.22;;
6898;SDS011;3488;42.616;23.350;2023-02-26T15:17:42;20.30;;;5.45;;
6898;SDS011;3488;42.616;23.350;2023-02-26T15:20:20;16.00;;;5.47;;
6898;SDS011;3488;42.616;23.350;2023-02-26T15:22:59;31.58;;;5.90;;
6898;SDS011;3488;42.616;23.350;2023-02-26T15:25:38;17.13;;;5.95;;
6898;SDS011;3488;42.616;23.350;2023-02-26T15:28:10;22.77;;;6.75;;
6898;SDS011;3488;42.616;23.350;2023-02-26T15:30:42;22.58;;;6.85;;
6898;SDS011;3488;42.616;23.350;2023-02-26T15:33:14;20.38;;;5.72;;
6898;SDS011;3488;42.616;23.350;2023-02-26T15:35:44;25.42;;;7.10;;
6898;SDS011;3488;42.616;23.350;2023-02-26T15:38:13;19.25;;;6.60;;